Time;durP1;ratioP1;P1;durP2;ratioP2;P2;SDS_P1;SDS_P2;PMS_P1;PMS_P2;Temp;Humidity;BMP_temperature;BMP_pressure;BME280_temperature;BME280_humidity;BME280_pressure;Samples;Min_cycle;Max_cycle;Signal;HPM_P1;HPM_P2
2022/08/15 00:01:45;;;;;;;6.45;3.60;;;27.90;60.90;;;;;;5051699;28;20281;-72
2022/08/15 00:04:11;;;;;;;7.55;4.20;;;27.90;61.50;;;;;;5051928;28;20025;-71
2022/08/15 00:06:45;;;;;;;8.07;4.43;;;28.00;62.10;;;;;;5051641;28;20508;-72
2022/08/15 00:09:18;;;;;;;4.88;4.22;;;28.00;61.90;;;;;;5050145;28;20033;-72
2022/08/15 00:11:49;;;;;;;5.90;3.45;;;28.00;62.10;;;;;;5051754;28;20074;-72
2022/08/15 00:14:21;;;;;;;4.72;3.88;;;28.00;62.20;;;;;;5050087;28;20040;-72
2022/08/15 00:16:48;;;;;;;5.82;3.67;;;27.90;61.60;;;;;;5051724;28;20037;-71
2022/08/15 00:19:29;;;;;;;5.38;4.47;;;28.00;62.20;;;;;;5050230;28;20398;-71
2022/08/15 00:21:59;;;;;;;5.25;4.10;;;27.90;61.60;;;;;;5050399;28;20033;-71
2022/08/15 00:24:28;;;;;;;9.52;4.72;;;27.90;61.50;;;;;;5051569;28;20494;-72
2022/08/15 00:26:56;;;;;;;6.82;3.75;;;27.90;61.50;;;;;;5051151;28;20363;-72
2022/08/15 00:29:27;;;;;;;8.05;3.97;;;27.90;61.60;;;;;;5051281;28;20060;-71
2022/08/15 00:31:53;;;;;;;7.18;4.80;;;27.90;61.70;;;;;;5050059;28;20075;-71
2022/08/15 00:34:21;;;;;;;4.88;4.18;;;27.80;61.70;;;;;;5050078;28;20031;-71
2022/08/15 00:36:48;;;;;;;7.60;4.45;;;27.90;61.70;;;;;;5065718;28;20037;-71
2022/08/15 00:39:15;;;;;;;4.28;3.85;;;27.90;61.70;;;;;;5051093;28;20481;-71
2022/08/15 00:41:42;;;;;;;5.28;4.07;;;28.00;62.40;;;;;;5049909;28;20057;-71
2022/08/15 00:44:40;;;;;;;4.80;4.05;;;27.80;61.70;;;;;;5056971;28;20072;-72
2022/08/15 00:47:13;;;;;;;9.10;4.18;;;27.90;61.70;;;;;;5028622;28;20048;-72
2022/08/15 00:49:40;;;;;;;6.43;4.32;;;28.00;62.40;;;;;;5029075;28;20083;-71
2022/08/15 00:52:23;;;;;;;8.15;4.03;;;28.00;62.40;;;;;;5012459;28;20161;-72
2022/08/15 00:54:57;;;;;;;5.82;4.07;;;28.00;62.40;;;;;;5012655;28;20045;-72
2022/08/15 00:57:28;;;;;;;6.47;3.90;;;27.90;61.60;;;;;;5028754;28;20045;-72
2022/08/15 00:59:59;;;;;;;4.30;3.70;;;28.00;62.30;;;;;;5028997;28;20651;-70
2022/08/15 01:02:30;;;;;;;4.93;3.90;;;27.90;61.60;;;;;;5028920;28;20108;-71
2022/08/15 01:04:58;;;;;;;6.13;3.60;;;28.00;62.30;;;;;;5012306;28;20038;-72
2022/08/15 01:07:24;;;;;;;8.82;4.55;;;27.90;61.60;;;;;;5013100;28;20136;-72
2022/08/15 01:09:51;;;;;;;7.70;4.00;;;28.00;62.30;;;;;;5012716;28;20524;-72
2022/08/15 01:12:22;;;;;;;4.88;3.90;;;28.00;62.30;;;;;;4996382;28;20066;-71
2022/08/15 01:14:57;;;;;;;5.85;4.82;;;28.00;62.30;;;;;;5012766;28;20546;-72
2022/08/15 01:17:26;;;;;;;5.15;4.03;;;27.90;61.60;;;;;;5012777;28;20041;-72
2022/08/15 01:20:11;;;;;;;5.90;3.80;;;27.90;61.60;;;;;;5012640;28;20041;-72
2022/08/15 01:23:27;;;;;;;4.65;3.95;;;27.80;61.60;;;;;;5013184;28;20030;-71
2022/08/15 01:26:02;;;;;;;6.72;3.97;;;27.90;61.40;;;;;;5012653;28;20125;-71
2022/08/15 01:28:34;;;;;;;5.13;4.15;;;27.90;61.30;;;;;;5012463;28;20073;-72
2022/08/15 01:31:09;;;;;;;7.63;4.05;;;27.70;61.30;;;;;;4996212;28;20046;-72
2022/08/15 01:33:46;;;;;;;6.20;4.43;;;27.80;61.40;;;;;;5012583;28;20034;-72
2022/08/15 01:36:13;;;;;;;9.90;3.92;;;27.70;61.40;;;;;;5007856;28;20045;-71
2022/08/15 01:38:47;;;;;;;8.25;3.72;;;27.90;61.50;;;;;;5031144;28;20037;-72
2022/08/15 01:41:33;;;;;;;7.13;4.15;;;27.70;61.60;;;;;;5009022;28;20066;-72
2022/08/15 01:44:20;;;;;;;10.02;3.70;;;27.80;61.50;;;;;;4992723;28;20038;-73
2022/08/15 01:46:55;;;;;;;5.90;4.13;;;27.80;61.80;;;;;;4976349;28;20046;-72
2022/08/15 01:49:31;;;;;;;6.20;4.82;;;27.80;62.00;;;;;;4992496;28;20085;-72
2022/08/15 01:52:00;;;;;;;6.72;4.25;;;27.80;62.00;;;;;;4992651;28;20042;-72
2022/08/15 01:54:32;;;;;;;5.25;4.28;;;27.90;62.10;;;;;;4976391;28;20072;-71
2022/08/15 01:56:59;;;;;;;;;;;27.80;62.10;;;;;;5019300;28;20045;-72
2022/08/15 01:59:25;;;;;;;5.72;4.10;;;27.80;62.10;;;;;;5032933;28;19943;-72
2022/08/15 02:01:59;;;;;;;5.22;3.70;;;27.80;62.10;;;;;;5032780;28;20041;-72
2022/08/15 02:04:35;;;;;;;5.03;3.40;;;27.90;62.10;;;;;;5033150;28;20033;-72
2022/08/15 02:07:08;;;;;;;7.13;4.50;;;27.90;62.20;;;;;;5033402;28;20117;-72
2022/08/15 02:09:35;;;;;;;4.57;3.67;;;27.90;62.20;;;;;;5015966;28;20083;-72
2022/08/15 02:12:08;;;;;;;6.18;4.07;;;27.90;62.20;;;;;;5032482;28;20124;-72
2022/08/15 02:14:41;;;;;;;5.18;4.15;;;28.00;62.80;;;;;;5033496;28;20368;-72
2022/08/15 02:17:13;;;;;;;7.55;4.43;;;27.90;62.10;;;;;;5032083;28;20071;-72
2022/08/15 02:19:42;;;;;;;6.57;4.25;;;27.90;62.20;;;;;;5032211;28;20151;-72
2022/08/15 02:22:09;;;;;;;5.72;4.65;;;28.00;62.80;;;;;;5031870;28;20036;-72
2022/08/15 02:24:36;;;;;;;9.60;4.57;;;28.00;62.80;;;;;;5032467;28;20368;-71
2022/08/15 02:27:04;;;;;;;10.05;4.85;;;28.10;62.70;;;;;;5032538;28;20049;-71
2022/08/15 02:29:31;;;;;;;8.43;4.30;;;28.00;62.70;;;;;;5033745;28;20174;-72
2022/08/15 02:32:05;;;;;;;6.18;4.30;;;28.10;62.70;;;;;;5033763;28;20044;-72
2022/08/15 02:34:34;;;;;;;4.68;3.60;;;28.00;62.70;;;;;;5033632;28;20021;-72
2022/08/15 02:37:04;;;;;;;9.77;4.15;;;28.00;62.60;;;;;;5050137;28;20429;-71
2022/08/15 02:39:31;;;;;;;5.20;3.33;;;28.10;62.70;;;;;;5063126;28;20073;-72
2022/08/15 02:41:57;;;;;;;6.93;3.85;;;28.10;62.60;;;;;;5073947;28;20071;-72
2022/08/15 02:44:23;;;;;;;8.68;4.47;;;28.10;62.60;;;;;;5070727;28;20048;-71
2022/08/15 02:47:02;;;;;;;6.57;4.05;;;28.10;62.60;;;;;;5070642;28;20111;-72
2022/08/15 02:49:28;;;;;;;3.70;3.05;;;28.10;62.50;;;;;;5070668;28;20036;-72
2022/08/15 02:51:56;;;;;;;7.20;3.97;;;28.10;62.50;;;;;;5070645;28;20041;-72
2022/08/15 02:54:26;;;;;;;4.65;3.63;;;28.10;62.50;;;;;;5053783;28;20047;-71
2022/08/15 02:56:55;;;;;;;8.35;3.92;;;28.10;62.50;;;;;;5070344;28;20032;-72
2022/08/15 02:59:22;;;;;;;5.05;3.90;;;28.10;62.40;;;;;;5053523;28;20040;-71
2022/08/15 03:01:49;;;;;;;4.88;3.72;;;28.20;62.40;;;;;;5070516;28;20393;-72
2022/08/15 03:04:19;;;;;;;7.65;4.65;;;28.20;62.40;;;;;;5070344;28;20584;-72
2022/08/15 03:06:47;;;;;;;8.02;4.07;;;28.10;62.30;;;;;;5070320;28;20044;-71
2022/08/15 03:09:15;;;;;;;4.40;3.42;;;28.10;62.30;;;;;;5070057;28;20049;-72
2022/08/15 03:12:01;;;;;;;4.82;3.95;;;28.20;62.20;;;;;;5070508;28;20579;-72
2022/08/15 03:14:36;;;;;;;5.07;3.80;;;28.20;62.20;;;;;;5062731;28;20044;-72
2022/08/15 03:17:08;;;;;;;7.22;4.63;;;28.10;62.10;;;;;;5071513;28;20037;-72
2022/08/15 03:19:40;;;;;;;6.13;4.60;;;28.20;62.10;;;;;;5071291;28;20052;-72
2022/08/15 03:22:10;;;;;;;9.98;5.45;;;28.20;62.10;;;;;;5071372;28;20040;-71
2022/08/15 03:24:42;;;;;;;6.47;4.45;;;28.00;62.10;;;;;;5055042;28;20024;-72
2022/08/15 03:27:09;;;;;;;10.07;5.18;;;28.00;62.10;;;;;;5072325;28;20055;-72
2022/08/15 03:29:36;;;;;;;8.80;5.07;;;28.10;62.10;;;;;;5056587;28;20055;-72
2022/08/15 03:32:12;;;;;;;4.40;3.65;;;28.10;62.10;;;;;;5073330;28;20512;-71
2022/08/15 03:34:39;;;;;;;6.72;4.53;;;28.10;62.30;;;;;;5071635;28;20040;-72
2022/08/15 03:37:05;;;;;;;7.35;3.85;;;28.10;62.20;;;;;;5053071;28;20048;-72
2022/08/15 03:39:31;;;;;;;7.13;4.65;;;28.10;62.20;;;;;;5052637;28;20153;-72
2022/08/15 03:41:58;;;;;;;5.47;4.38;;;28.10;62.20;;;;;;5069547;28;20254;-72
2022/08/15 03:44:25;;;;;;;8.07;5.10;;;28.00;62.20;;;;;;5052693;28;20032;-72
2022/08/15 03:46:51;;;;;;;5.15;3.60;;;28.20;62.10;;;;;;5052992;28;20454;-72
2022/08/15 03:49:17;;;;;;;4.13;3.70;;;28.10;62.10;;;;;;5069592;28;20067;-72
2022/08/15 03:51:43;;;;;;;6.50;4.60;;;28.20;62.10;;;;;;5069581;28;20064;-72
2022/08/15 03:54:13;;;;;;;7.70;3.65;;;28.20;62.10;;;;;;5041310;28;20044;-71
2022/08/15 03:56:39;;;;;;;7.60;4.60;;;28.00;62.10;;;;;;5049690;28;20087;-71
2022/08/15 03:59:10;;;;;;;12.73;4.90;;;28.20;62.10;;;;;;5030519;28;20111;-71
2022/08/15 04:01:38;;;;;;;7.97;4.53;;;28.10;62.10;;;;;;5049361;28;20040;-71
2022/08/15 04:04:05;;;;;;;5.57;3.40;;;28.10;62.10;;;;;;5032724;28;20053;-72
2022/08/15 04:06:40;;;;;;;9.10;4.60;;;28.20;62.00;;;;;;5032580;28;20120;-71
2022/08/15 04:09:06;;;;;;;5.32;4.20;;;28.20;61.50;;;;;;5032708;28;20032;-71
2022/08/15 04:11:33;;;;;;;6.85;4.80;;;28.30;61.00;;;;;;5016210;28;20045;-72
2022/08/15 04:14:00;;;;;;;5.80;4.72;;;28.10;59.80;;;;;;5032810;28;20071;-73
2022/08/15 04:16:27;;;;;;;8.85;5.03;;;28.00;61.40;;;;;;5032669;28;20049;-74
2022/08/15 04:18:53;;;;;;;7.18;4.82;;;28.20;63.40;;;;;;5048986;28;20045;-74
2022/08/15 04:21:20;;;;;;;9.23;5.07;;;28.40;65.40;;;;;;5049061;28;20045;-73
2022/08/15 04:23:47;;;;;;;6.95;4.65;;;28.50;65.40;;;;;;5049234;28;20131;-73
2022/08/15 04:26:15;;;;;;;7.03;4.85;;;28.40;65.00;;;;;;5049153;28;20052;-72
2022/08/15 04:28:43;;;;;;;5.22;4.65;;;28.50;61.90;;;;;;5049056;28;20669;-73
2022/08/15 04:31:16;;;;;;;7.47;5.85;;;28.40;62.00;;;;;;5049108;28;20033;-74
2022/08/15 04:33:44;;;;;;;8.18;5.00;;;28.40;61.90;;;;;;5060801;28;20028;-73
2022/08/15 04:36:16;;;;;;;6.80;5.28;;;28.30;61.50;;;;;;5052349;28;20043;-73
2022/08/15 04:38:45;;;;;;;9.38;5.00;;;28.30;61.40;;;;;;5057667;28;20493;-73
2022/08/15 04:41:12;;;;;;;10.32;5.35;;;28.20;61.30;;;;;;5058805;28;20052;-73
2022/08/15 04:43:40;;;;;;;7.80;5.68;;;28.30;61.30;;;;;;5059163;28;20805;-73
2022/08/15 04:46:10;;;;;;;6.10;4.93;;;28.40;61.20;;;;;;5058896;28;20509;-74
2022/08/15 04:48:38;;;;;;;8.55;4.75;;;28.30;61.20;;;;;;5058817;28;20092;-73
2022/08/15 04:51:06;;;;;;;5.45;4.53;;;28.30;61.30;;;;;;5056679;28;20143;-73
2022/08/15 04:53:35;;;;;;;8.63;4.55;;;28.40;61.50;;;;;;5057950;28;20037;-72
2022/08/15 04:56:08;;;;;;;4.10;2.20;;;28.30;61.30;;;;;;5056956;28;20040;-71
2022/08/15 04:58:38;;;;;;;1.70;1.60;;;28.30;62.50;;;;;;5040498;28;20037;-71
2022/08/15 05:01:11;;;;;;;3.42;2.15;;;28.30;60.50;;;;;;5056620;28;20037;-71
2022/08/15 05:03:43;;;;;;;4.13;2.80;;;28.30;59.70;;;;;;5056808;28;20029;-71
2022/08/15 05:06:10;;;;;;;3.42;2.85;;;28.20;58.90;;;;;;5075439;28;20040;-72
2022/08/15 05:08:38;;;;;;;2.38;1.80;;;28.20;59.50;;;;;;5075270;28;20552;-72
2022/08/15 05:11:18;;;;;;;3.42;2.38;;;28.20;59.50;;;;;;5075329;28;20094;-72
2022/08/15 05:13:52;;;;;;;3.45;3.00;;;28.20;60.30;;;;;;5035100;28;20050;-72
2022/08/15 05:16:30;;;;;;;4.57;2.40;;;28.20;60.90;;;;;;5035229;28;20045;-72
2022/08/15 05:18:56;;;;;;;5.45;2.65;;;28.30;61.00;;;;;;5034512;28;20136;-72
2022/08/15 05:21:22;;;;;;;3.47;3.17;;;28.30;60.70;;;;;;5034852;28;20117;-72
2022/08/15 05:23:48;;;;;;;3.42;2.70;;;28.30;62.00;;;;;;5034645;28;20134;-73
2022/08/15 05:26:23;;;;;;;4.40;2.65;;;28.30;61.50;;;;;;5035021;28;20045;-72
2022/08/15 05:28:49;;;;;;;6.72;5.03;;;28.30;61.10;;;;;;5034719;28;20545;-72
2022/08/15 05:31:16;;;;;;;7.93;5.38;;;28.30;61.90;;;;;;5040751;28;20041;-72
2022/08/15 05:33:46;;;;;;;7.72;4.20;;;28.30;60.80;;;;;;4998442;28;20053;-72
2022/08/15 05:36:14;;;;;;;3.88;2.38;;;28.40;60.70;;;;;;4998861;28;20138;-71
2022/08/15 05:38:49;;;;;;;10.23;5.72;;;28.30;60.80;;;;;;4998800;28;20749;-72
2022/08/15 05:41:23;;;;;;;10.05;5.22;;;28.20;62.00;;;;;;5015037;28;20066;-72
2022/08/15 05:44:03;;;;;;;4.95;4.47;;;28.20;62.30;;;;;;4984126;28;20050;-73
2022/08/15 05:46:57;;;;;;;7.10;5.45;;;28.20;61.00;;;;;;4991682;28;20038;-72
2022/08/15 05:49:39;;;;;;;10.20;5.28;;;28.20;59.30;;;;;;5003394;28;20061;-71
2022/08/15 05:52:20;;;;;;;7.85;5.13;;;28.10;59.80;;;;;;5012294;28;20500;-73
2022/08/15 05:54:54;;;;;;;8.50;5.53;;;28.20;60.20;;;;;;5013696;28;20488;-70
2022/08/15 05:57:34;;;;;;;12.50;5.05;;;28.00;63.30;;;;;;5030712;28;20037;-71
2022/08/15 06:00:09;;;;;;;7.25;5.35;;;28.00;61.30;;;;;;5016382;28;20434;-70
2022/08/15 06:03:34;;;;;;;10.45;6.13;;;28.10;60.80;;;;;;5030169;28;20034;-71
2022/08/15 06:06:06;;;;;;;11.07;5.63;;;28.10;60.40;;;;;;4973364;28;20034;-72
2022/08/15 06:08:36;;;;;;;;;;;28.00;60.30;;;;;;4987765;28;20038;-71
2022/08/15 06:11:21;;;;;;;16.00;6.13;;;28.10;60.10;;;;;;4982806;28;20051;-70
2022/08/15 06:13:58;;;;;;;7.97;5.65;;;28.00;60.10;;;;;;4975294;28;20068;-71
2022/08/15 06:16:28;;;;;;;9.35;7.18;;;28.10;60.10;;;;;;4998950;28;20034;-71
2022/08/15 06:18:56;;;;;;;10.27;5.78;;;28.20;59.80;;;;;;5005141;28;20073;-70
2022/08/15 06:21:40;;;;;;;7.72;6.10;;;28.20;59.90;;;;;;5014009;28;20048;-74
2022/08/15 06:24:26;;;;;;;10.90;6.75;;;28.10;60.00;;;;;;4993997;28;20034;-72
2022/08/15 06:27:13;;;;;;;10.13;6.20;;;28.10;59.80;;;;;;5009515;28;20498;-71
2022/08/15 06:30:09;;;;;;;13.13;6.60;;;28.10;60.00;;;;;;4999022;28;20073;-71
2022/08/15 06:32:55;;;;;;;6.50;5.63;;;28.20;59.90;;;;;;4993552;28;20038;-71
2022/08/15 06:35:44;;;;;;;10.07;6.30;;;28.00;60.70;;;;;;4991151;28;20041;-71
2022/08/15 06:38:36;;;;;;;9.20;7.00;;;28.10;60.30;;;;;;4975014;28;20280;-71
2022/08/15 06:41:34;;;;;;;11.03;6.97;;;28.00;60.30;;;;;;4988346;28;20402;-71
2022/08/15 06:44:12;;;;;;;8.13;5.80;;;28.10;60.40;;;;;;4991248;28;20287;-71
2022/08/15 06:46:47;;;;;;;10.57;7.13;;;28.00;60.30;;;;;;5006977;28;20068;-72
2022/08/15 06:49:16;;;;;;;8.43;5.65;;;27.90;59.80;;;;;;4994645;28;20041;-72
2022/08/15 06:51:47;;;;;;;10.48;6.95;;;28.20;60.40;;;;;;4994786;28;20433;-72
2022/08/15 06:54:22;;;;;;;8.07;7.20;;;28.00;60.40;;;;;;5010861;28;20045;-72
2022/08/15 06:57:05;;;;;;;8.85;7.35;;;28.00;60.30;;;;;;4994712;28;20038;-70
2022/08/15 06:59:48;;;;;;;9.55;6.90;;;28.10;60.20;;;;;;5010533;28;20046;-72
2022/08/15 07:02:43;;;;;;;9.32;6.53;;;28.10;60.40;;;;;;4993437;28;20084;-71
2022/08/15 07:05:17;;;;;;;9.07;6.97;;;28.20;60.00;;;;;;4994426;28;20407;-72
2022/08/15 07:07:54;;;;;;;9.88;7.18;;;28.20;60.20;;;;;;4994303;28;20052;-72
2022/08/15 07:10:42;;;;;;;10.98;7.65;;;28.20;59.90;;;;;;5050168;28;20079;-72
2022/08/15 07:13:18;;;;;;;11.02;7.43;;;28.20;59.90;;;;;;5052920;28;20095;-71
2022/08/15 07:16:27;;;;;;;8.88;7.28;;;28.10;59.70;;;;;;5047707;28;20059;-72
2022/08/15 07:18:58;;;;;;;11.05;6.40;;;28.10;59.80;;;;;;5013451;28;20123;-71
2022/08/15 07:21:41;;;;;;;11.70;7.55;;;28.00;60.10;;;;;;5029919;28;20045;-71
2022/08/15 07:24:15;;;;;;;9.15;6.80;;;28.20;59.70;;;;;;5013446;28;20112;-72
2022/08/15 07:26:52;;;;;;;10.07;7.68;;;28.20;59.70;;;;;;5015402;28;20102;-72
2022/08/15 07:29:28;;;;;;;9.63;6.95;;;28.20;59.70;;;;;;5013536;28;20048;-71
2022/08/15 07:32:24;;;;;;;13.38;7.88;;;28.10;59.80;;;;;;5013203;28;20038;-72
2022/08/15 07:35:14;;;;;;;11.07;8.30;;;28.20;60.30;;;;;;4979341;28;20070;-72
2022/08/15 07:37:58;;;;;;;10.50;7.47;;;28.00;60.10;;;;;;4970912;28;20039;-72
2022/08/15 07:40:34;;;;;;;12.13;8.48;;;28.10;60.00;;;;;;4970338;28;20152;-73
2022/08/15 07:43:05;;;;;;;10.38;7.82;;;28.00;60.40;;;;;;4970729;28;20066;-73
2022/08/15 07:45:39;;;;;;;12.00;7.05;;;28.10;60.70;;;;;;4970505;28;20047;-71
2022/08/15 07:48:23;;;;;;;12.63;6.90;;;28.00;61.30;;;;;;4970567;28;20146;-70
2022/08/15 07:51:27;;;;;;;8.05;7.13;;;28.00;60.80;;;;;;4970672;28;20057;-70
2022/08/15 07:54:03;;;;;;;12.23;7.72;;;28.00;61.00;;;;;;4993346;28;20030;-69
2022/08/15 07:56:51;;;;;;;12.95;6.55;;;28.10;60.80;;;;;;5009417;28;20574;-70
2022/08/15 07:59:20;;;;;;;10.27;7.25;;;28.00;61.00;;;;;;5007228;28;20049;-70
2022/08/15 08:01:49;;;;;;;9.65;5.15;;;28.20;61.20;;;;;;4993157;28;20038;-69
2022/08/15 08:04:24;;;;;;;7.97;6.75;;;28.10;61.30;;;;;;5009452;28;20156;-70
2022/08/15 08:07:08;;;;;;;7.78;5.13;;;28.20;62.30;;;;;;5009371;28;20038;-70
2022/08/15 08:09:48;;;;;;;9.98;6.72;;;28.20;62.00;;;;;;5009337;28;20387;-70
2022/08/15 08:12:20;;;;;;;9.23;7.60;;;28.20;61.80;;;;;;5035778;28;20041;-70
2022/08/15 08:14:53;;;;;;;10.38;8.75;;;28.00;61.20;;;;;;5050101;28;20095;-70
2022/08/15 08:17:31;;;;;;;10.52;7.95;;;28.20;61.00;;;;;;5050290;28;20036;-71
2022/08/15 08:20:05;;;;;;;9.70;7.32;;;28.30;61.00;;;;;;5068630;28;20534;-70
2022/08/15 08:22:48;;;;;;;11.02;7.63;;;28.10;60.90;;;;;;5068730;28;20036;-70
2022/08/15 08:25:34;;;;;;;12.93;7.30;;;28.20;60.90;;;;;;5074867;28;20080;-70
2022/08/15 08:28:06;;;;;;;11.32;7.88;;;28.10;60.90;;;;;;5068688;28;20715;-68
2022/08/15 08:30:49;;;;;;;10.43;7.43;;;28.20;60.90;;;;;;5044375;28;20067;-70
2022/08/15 08:33:22;;;;;;;8.57;7.55;;;28.20;60.90;;;;;;5061902;28;20032;-69
2022/08/15 08:35:58;;;;;;;9.88;7.80;;;28.40;60.90;;;;;;5066503;28;20029;-70
2022/08/15 08:38:54;;;;;;;11.50;8.02;;;28.30;61.00;;;;;;5067398;28;20036;-71
2022/08/15 08:41:25;;;;;;;11.73;7.78;;;28.30;61.00;;;;;;5068453;28;20048;-70
2022/08/15 08:44:23;;;;;;;11.32;5.65;;;28.20;60.80;;;;;;5068838;28;20055;-70
2022/08/15 08:47:00;;;;;;;13.65;8.65;;;28.30;63.60;;;;;;5064639;28;20391;-69
2022/08/15 08:49:53;;;;;;;22.83;12.25;;;28.40;64.80;;;;;;5068668;28;20036;-70
2022/08/15 08:52:32;;;;;;;13.03;7.80;;;28.70;65.00;;;;;;5046546;28;20039;-70
2022/08/15 08:55:01;;;;;;;15.68;8.30;;;28.80;60.80;;;;;;5049199;28;20274;-70
2022/08/15 08:57:52;;;;;;;14.95;8.65;;;28.70;60.60;;;;;;5051344;28;20065;-69
2022/08/15 09:00:20;;;;;;;12.48;8.57;;;28.50;60.40;;;;;;5051320;28;20048;-69
2022/08/15 09:03:14;;;;;;;7.68;6.05;;;28.60;60.90;;;;;;5051142;28;20032;-70
2022/08/15 09:05:51;;;;;;;9.50;8.40;;;28.50;61.20;;;;;;5048578;28;20099;-70
2022/08/15 09:08:27;;;;;;;7.90;7.07;;;28.50;61.10;;;;;;5048309;28;20067;-70
2022/08/15 09:10:57;;;;;;;10.75;8.18;;;28.50;61.30;;;;;;5047964;28;20391;-69
2022/08/15 09:13:34;;;;;;;12.95;8.48;;;28.40;61.20;;;;;;5048135;28;20524;-73
2022/08/15 09:16:15;;;;;;;10.75;8.07;;;28.50;61.20;;;;;;5048213;28;20037;-68
2022/08/15 09:19:04;;;;;;;5.70;4.05;;;28.50;61.10;;;;;;5055140;28;20031;-71
2022/08/15 09:21:32;;;;;;;9.38;7.13;;;28.50;60.90;;;;;;5058583;28;20623;-72
2022/08/15 09:23:59;;;;;;;14.68;6.78;;;28.60;61.10;;;;;;5044173;28;20045;-73
2022/08/15 09:26:33;;;;;;;12.85;7.55;;;28.50;62.00;;;;;;5051224;28;20047;-73
2022/08/15 09:29:02;;;;;;;6.75;5.20;;;28.50;62.20;;;;;;5049395;28;20055;-75
2022/08/15 09:31:32;;;;;;;4.55;2.63;;;28.50;63.10;;;;;;5040216;28;20048;-73
2022/08/15 09:34:16;;;;;;;1.40;1.38;;;28.50;63.40;;;;;;5051906;28;20430;-73
2022/08/15 09:37:01;;;;;;;14.50;6.35;;;28.40;63.40;;;;;;5050184;28;20092;-73
2022/08/15 09:40:12;;;;;;;9.48;6.03;;;28.50;64.10;;;;;;5051171;28;20160;-72
2022/08/15 09:43:17;;;;;;;12.35;9.13;;;28.60;65.40;;;;;;4962873;28;20086;-74
2022/08/15 09:46:09;;;;;;;9.82;8.05;;;28.50;64.20;;;;;;4971652;28;20397;-74
2022/08/15 09:48:59;;;;;;;11.15;7.20;;;28.70;62.90;;;;;;4962251;28;20160;-72
2022/08/15 09:51:28;;;;;;;15.10;8.20;;;28.60;63.10;;;;;;4961494;28;20031;-72
2022/08/15 09:54:21;;;;;;;7.07;3.65;;;28.60;62.60;;;;;;4963266;28;20148;-71
2022/08/15 09:56:48;;;;;;;5.13;3.33;;;28.70;65.50;;;;;;4888100;29;20040;-72
2022/08/15 09:59:19;;;;;;;10.23;8.27;;;29.00;68.40;;;;;;4896697;29;20048;-69
2022/08/15 10:01:56;;;;;;;11.88;7.88;;;29.20;68.70;;;;;;4896341;29;20048;-69
2022/08/15 10:05:00;;;;;;;11.20;8.80;;;29.50;69.40;;;;;;4896888;29;20411;-69
2022/08/15 10:07:31;;;;;;;16.10;8.75;;;29.60;59.60;;;;;;4896885;29;20080;-68
2022/08/15 10:10:00;;;;;;;11.38;7.60;;;29.50;59.50;;;;;;4896872;29;20052;-69
2022/08/15 10:12:28;;;;;;;11.07;9.07;;;29.50;59.50;;;;;;4896483;29;20549;-68
2022/08/15 10:15:01;;;;;;;12.27;8.25;;;29.40;60.20;;;;;;4896800;29;20052;-70
2022/08/15 10:17:34;;;;;;;10.55;7.72;;;29.40;60.70;;;;;;4903536;29;20262;-69
2022/08/15 10:20:15;;;;;;;15.00;8.77;;;29.40;61.30;;;;;;4939631;29;20036;-69
2022/08/15 10:23:07;;;;;;;13.75;9.70;;;29.30;61.80;;;;;;4953546;28;20135;-69
2022/08/15 10:25:37;;;;;;;11.52;7.32;;;29.40;62.50;;;;;;4972288;28;20070;-70
2022/08/15 10:28:05;;;;;;;11.20;8.57;;;29.30;60.90;;;;;;4992270;28;20447;-68
2022/08/15 10:30:39;;;;;;;9.90;8.73;;;29.20;61.00;;;;;;4992213;28;20057;-66
2022/08/15 10:33:24;;;;;;;16.10;8.10;;;29.20;60.60;;;;;;5011588;28;20048;-70
2022/08/15 10:35:51;;;;;;;10.43;7.70;;;29.10;60.50;;;;;;5073599;28;20031;-70
2022/08/15 10:38:25;;;;;;;11.27;7.93;;;29.10;60.60;;;;;;5057936;28;20025;-70
2022/08/15 10:41:22;;;;;;;14.10;7.32;;;29.10;60.60;;;;;;5053679;28;20485;-70
2022/08/15 10:44:14;;;;;;;9.43;8.43;;;29.10;60.60;;;;;;5074237;28;20044;-69
2022/08/15 10:47:01;;;;;;;9.63;8.63;;;29.00;60.70;;;;;;5062389;28;20485;-70
2022/08/15 10:50:01;;;;;;;9.70;7.13;;;28.90;60.30;;;;;;5072219;28;20032;-70
2022/08/15 10:53:07;;;;;;;11.80;7.80;;;29.00;60.90;;;;;;5073362;28;20055;-70
2022/08/15 10:55:39;;;;;;;11.15;8.50;;;29.00;61.00;;;;;;5025146;28;20030;-70
2022/08/15 10:58:14;;;;;;;7.60;6.85;;;28.90;60.60;;;;;;5028390;28;20041;-70
2022/08/15 11:01:06;;;;;;;11.20;7.80;;;28.90;60.80;;;;;;5030988;28;20041;-69
2022/08/15 11:03:52;;;;;;;12.13;7.90;;;28.80;60.70;;;;;;5026750;28;20041;-70
2022/08/15 11:06:21;;;;;;;11.45;8.20;;;28.80;60.90;;;;;;5012068;28;20149;-70
2022/08/15 11:08:53;;;;;;;11.23;7.47;;;28.70;61.00;;;;;;5010950;28;20049;-70
2022/08/15 11:11:24;;;;;;;8.88;7.20;;;28.80;60.90;;;;;;5010971;28;20149;-70
2022/08/15 11:13:57;;;;;;;11.73;8.48;;;28.70;60.80;;;;;;5015091;28;20033;-70
2022/08/15 11:16:35;;;;;;;11.60;7.57;;;28.80;61.00;;;;;;5011801;28;20038;-70
2022/08/15 11:19:16;;;;;;;15.63;7.90;;;28.70;60.90;;;;;;5014819;28;20088;-69
2022/08/15 11:21:55;;;;;;;12.85;8.18;;;28.70;60.90;;;;;;5030140;28;20041;-69
2022/08/15 11:24:33;;;;;;;9.07;7.60;;;28.80;60.40;;;;;;5030083;28;20044;-69
2022/08/15 11:27:14;;;;;;;12.30;7.25;;;28.70;60.90;;;;;;5013801;28;20041;-70
2022/08/15 11:29:41;;;;;;;21.60;7.55;;;28.70;60.90;;;;;;5030333;28;20124;-69
2022/08/15 11:32:07;;;;;;;9.25;7.95;;;28.70;60.90;;;;;;5070139;28;20048;-69
2022/08/15 11:34:35;;;;;;;16.30;8.45;;;28.60;61.10;;;;;;5072266;28;20031;-69
2022/08/15 11:37:19;;;;;;;11.15;7.55;;;28.70;63.20;;;;;;5072339;28;20512;-70
2022/08/15 11:40:12;;;;;;;15.35;7.72;;;28.80;63.50;;;;;;5072230;28;20035;-70
2022/08/15 11:42:40;;;;;;;9.85;7.20;;;28.70;63.40;;;;;;5029837;28;20045;-70
2022/08/15 11:45:10;;;;;;;12.98;8.25;;;28.70;63.40;;;;;;5029819;28;20061;-70
2022/08/15 11:47:45;;;;;;;11.63;7.20;;;28.60;63.40;;;;;;5029038;28;20132;-69
2022/08/15 11:50:31;;;;;;;12.98;6.90;;;28.70;63.30;;;;;;5029927;28;20091;-70
2022/08/15 11:53:01;;;;;;;12.05;6.97;;;28.70;63.30;;;;;;5029564;28;20068;-71
2022/08/15 11:55:43;;;;;;;12.00;7.70;;;28.80;63.40;;;;;;4999241;28;20065;-70
2022/08/15 11:58:12;;;;;;;12.70;7.55;;;28.70;64.20;;;;;;4990356;28;20038;-69
2022/08/15 12:00:55;;;;;;;9.70;7.88;;;28.70;64.00;;;;;;4990453;28;20050;-70
2022/08/15 12:03:27;;;;;;;9.50;7.60;;;28.60;62.70;;;;;;4973955;28;20053;-70
2022/08/15 12:05:56;;;;;;;9.15;7.57;;;28.70;61.90;;;;;;4990219;28;20034;-70
2022/08/15 12:08:27;;;;;;;8.98;7.10;;;28.70;61.90;;;;;;4990039;28;20038;-70
2022/08/15 12:11:23;;;;;;;13.43;7.65;;;28.50;61.40;;;;;;4990058;28;20566;-70
2022/08/15 12:14:04;;;;;;;7.20;6.38;;;28.70;61.10;;;;;;4992666;28;20034;-70
2022/08/15 12:16:40;;;;;;;8.35;6.90;;;28.60;61.00;;;;;;4984477;28;20072;-70
2022/08/15 12:19:30;;;;;;;11.38;6.90;;;28.60;60.80;;;;;;5014320;28;20462;-70
2022/08/15 12:22:05;;;;;;;9.38;7.35;;;28.70;60.70;;;;;;5029302;28;20077;-70
2022/08/15 12:24:34;;;;;;;9.68;7.28;;;28.70;60.70;;;;;;5029241;28;20048;-70
2022/08/15 12:27:01;;;;;;;10.13;6.97;;;28.70;60.60;;;;;;5059606;28;20048;-70
2022/08/15 12:29:31;;;;;;;12.45;6.97;;;28.70;60.70;;;;;;5071723;28;20097;-69
2022/08/15 12:31:59;;;;;;;11.35;8.30;;;28.70;60.60;;;;;;5070240;28;20036;-69
2022/08/15 12:34:47;;;;;;;12.25;7.63;;;28.70;60.50;;;;;;5071607;28;20037;-69
2022/08/15 12:37:18;;;;;;;9.85;7.30;;;28.60;60.40;;;;;;5071420;28;20068;-70
2022/08/15 12:39:48;;;;;;;13.18;7.18;;;28.60;60.40;;;;;;5071448;28;20465;-70
2022/08/15 12:42:29;;;;;;;7.07;6.38;;;28.70;60.50;;;;;;5071633;28;20075;-70
2022/08/15 12:44:58;;;;;;;9.18;7.10;;;28.70;60.50;;;;;;5071548;28;20389;-70
2022/08/15 12:47:28;;;;;;;8.95;7.32;;;28.70;60.50;;;;;;5071504;28;20375;-70
2022/08/15 12:49:54;;;;;;;10.10;6.43;;;28.70;60.40;;;;;;5071349;28;20028;-70
2022/08/15 12:52:20;;;;;;;10.57;6.97;;;28.60;60.30;;;;;;5071183;28;20029;-70
2022/08/15 12:54:48;;;;;;;9.80;6.82;;;28.70;60.30;;;;;;5071421;28;20499;-70
2022/08/15 12:57:15;;;;;;;10.35;6.85;;;28.70;60.30;;;;;;5071347;28;20037;-70
2022/08/15 12:59:41;;;;;;;8.93;7.55;;;28.60;60.40;;;;;;5074481;28;20044;-70
2022/08/15 13:02:09;;;;;;;13.88;7.35;;;28.60;60.50;;;;;;5074076;28;20056;-70
2022/08/15 13:04:35;;;;;;;9.30;7.07;;;28.60;60.50;;;;;;5075312;28;20481;-70
2022/08/15 13:07:02;;;;;;;8.35;7.00;;;28.60;60.60;;;;;;5074950;28;20143;-69
2022/08/15 13:09:31;;;;;;;8.07;7.25;;;28.50;60.60;;;;;;5075255;28;20474;-70
2022/08/15 13:12:01;;;;;;;11.23;6.85;;;28.50;60.60;;;;;;5069546;28;20032;-70
2022/08/15 13:14:29;;;;;;;7.90;6.18;;;28.50;60.70;;;;;;5055089;28;20037;-70
2022/08/15 13:16:56;;;;;;;12.02;8.23;;;28.50;60.70;;;;;;5053858;28;20401;-70
2022/08/15 13:19:31;;;;;;;11.73;6.90;;;28.50;60.80;;;;;;5069155;28;20091;-69
2022/08/15 13:24:42;;;;;;;8.65;7.00;;;28.40;60.90;;;;;;5054824;28;20025;-70
2022/08/15 13:27:09;;;;;;;8.25;7.22;;;28.30;60.90;;;;;;5054419;28;20071;-70